map of ROS home
ROS - Airport
Location
City:  Rosario, Santa Fe, Argentina
ICAO:SAAR
IATA:ROS

Details
Type:Airport (Aerodrome, Airfield)
Use:Public/Civil
Latitude:3254'13"S (-32.903610)
Longitude:6047'06"W (-60.784999)
Datum:WGS 1984
Elevation:85 ft (26 m)
Variation:8.09W (WMM2015v2 magnetic declination)
-0.17 annual change
Runways:1
Longest:9843 × 148 ft (3000 × 45 m), paved

Time
Time Zone:UTC-3
Local Time:

Weather
METAR:SAAR 041400Z 07007KT 9999 SCT030 24/16 Q1023
TAF:SAAR 041100Z 0412/0512 07005KT CAVOK TX28/0418Z TN16/0509Z= TAF SABE 041100Z 0412/0512 07010KT 9999 SCT035 TX26/0418Z TN19/0510Z
BECMG 0506/0508 36010KT

Related Locations
Nearby:
Farthest:YTY: 12399 mi / 19954 km
Yangzhou [Taizhou Airport (Yangtai Airport)], 32, CN

Find:

   beyond  
but within

Other Information
Maps:
NOTAMs:
Links:
Sources:

  
  • flag of Argentina
  

Sectional Chart

Flight Planning
at skyvector.com

Satellite Image

Google Maps Satellite view

 

Copyright © 2004-2019 Karl L. Swartz. All rights reserved.
The Great Circle Mapper name and logo are trademarks of the Great Circle Mapper.
All other trademarks mentioned herein belong to their respective owners.
Please see credits for attibutions and further copyright information.

  Follow gcmap on Facebook Follow gcmap on Twitter GCmap on LinkedIn

hCard Microformat

Geo Microformat